createdAt,value
2023-09-22T00:00:19.152Z,7.13
2023-09-22T00:02:48.547Z,5.88
2023-09-22T00:05:17.759Z,7.87
2023-09-22T00:07:47.195Z,5.35
2023-09-22T00:10:17.328Z,6.20
2023-09-22T00:12:47.748Z,7.20
2023-09-22T00:15:17.410Z,5.88
2023-09-22T00:17:46.428Z,5.57
2023-09-22T00:20:16.510Z,6.50
2023-09-22T00:22:45.567Z,5.38
2023-09-22T00:25:14.911Z,5.72
2023-09-22T00:27:45.150Z,6.80
2023-09-22T00:30:14.132Z,7.83
2023-09-22T00:32:43.252Z,5.03
2023-09-22T00:35:13.712Z,6.93
2023-09-22T00:37:42.711Z,8.13
2023-09-22T00:40:13.759Z,7.10
2023-09-22T00:42:42.887Z,7.23
2023-09-22T00:45:15.358Z,8.85
2023-09-22T00:47:44.276Z,8.52
2023-09-22T00:50:13.746Z,5.50
2023-09-22T00:52:43.427Z,7.18
2023-09-22T00:55:12.471Z,6.27
2023-09-22T00:57:42.040Z,6.10
2023-09-22T01:00:14.728Z,10.30
2023-09-22T01:02:43.636Z,6.63
2023-09-22T01:05:12.725Z,7.72
2023-09-22T01:07:41.766Z,5.70
2023-09-22T01:10:11.861Z,9.82
2023-09-22T01:12:40.852Z,6.68
2023-09-22T01:15:12.881Z,5.88
2023-09-22T01:17:41.745Z,7.50
2023-09-22T01:20:11.780Z,6.47
2023-09-22T01:22:44.797Z,9.45
2023-09-22T01:25:13.996Z,5.03
2023-09-22T01:27:42.901Z,9.60
2023-09-22T01:30:16.842Z,8.25
2023-09-22T01:32:45.639Z,7.17
2023-09-22T01:35:14.421Z,8.95
2023-09-22T01:37:56.463Z,8.90
2023-09-22T01:40:25.156Z,7.22
2023-09-22T01:42:55.280Z,7.38
2023-09-22T01:45:24.292Z,7.83
2023-09-22T01:47:55.380Z,8.65
2023-09-22T01:50:24.274Z,6.95
2023-09-22T01:52:55.206Z,7.13
2023-09-22T01:55:24.158Z,8.32
2023-09-22T01:57:53.848Z,6.53
2023-09-22T02:00:23.100Z,5.35
2023-09-22T02:02:53.179Z,7.47
2023-09-22T02:05:22.165Z,8.50
2023-09-22T02:07:51.431Z,10.93
2023-09-22T02:10:21.981Z,9.17
2023-09-22T02:12:51.323Z,7.20
2023-09-22T02:15:20.453Z,6.03
2023-09-22T02:17:49.669Z,9.13
2023-09-22T02:20:23.369Z,7.53
2023-09-22T02:22:56.868Z,6.83
2023-09-22T02:25:27.974Z,9.15
2023-09-22T02:28:00.195Z,6.00
2023-09-22T02:30:29.272Z,7.22
2023-09-22T02:32:58.249Z,8.45
2023-09-22T02:35:27.113Z,8.57
2023-09-22T02:37:57.113Z,7.25
2023-09-22T02:40:27.204Z,7.05
2023-09-22T02:42:56.103Z,7.10
2023-09-22T02:45:25.327Z,8.63
2023-09-22T02:47:56.035Z,9.47
2023-09-22T02:50:24.968Z,7.00
2023-09-22T02:52:54.135Z,9.48
2023-09-22T02:55:22.850Z,7.95
2023-09-22T02:57:55.452Z,9.82
2023-09-22T03:00:24.466Z,8.27
2023-09-22T03:02:54.663Z,9.63
2023-09-22T03:05:23.577Z,10.65
2023-09-22T03:07:56.496Z,7.35
2023-09-22T03:10:26.376Z,7.70
2023-09-22T03:12:59.241Z,7.80
2023-09-22T03:15:28.767Z,12.82
2023-09-22T03:18:00.540Z,9.43
2023-09-22T03:20:30.103Z,9.68
2023-09-22T03:22:59.485Z,7.85
2023-09-22T03:25:28.763Z,8.50
2023-09-22T03:27:59.180Z,8.05
2023-09-22T03:30:28.299Z,14.00
2023-09-22T03:33:00.239Z,9.45
2023-09-22T03:35:29.883Z,8.85
2023-09-22T03:38:00.586Z,8.53
2023-09-22T03:40:34.017Z,10.73
2023-09-22T03:43:04.995Z,9.13
2023-09-22T03:45:36.574Z,9.05
2023-09-22T03:48:07.104Z,8.20
2023-09-22T03:50:37.972Z,10.07
2023-09-22T03:53:06.938Z,9.18
2023-09-22T03:55:35.773Z,10.30
2023-09-22T03:58:07.720Z,13.63
2023-09-22T04:00:36.571Z,10.82
2023-09-22T04:03:09.339Z,9.50
2023-09-22T04:05:39.161Z,10.02
2023-09-22T04:08:08.302Z,9.60
2023-09-22T04:10:37.064Z,11.25
2023-09-22T04:13:07.499Z,8.50
2023-09-22T04:15:37.023Z,9.40
2023-09-22T04:18:08.330Z,9.45
2023-09-22T04:20:38.866Z,10.63
2023-09-22T04:23:07.755Z,8.93
2023-09-22T04:25:39.173Z,9.05
2023-09-22T04:28:14.249Z,9.03
2023-09-22T04:30:43.524Z,11.00
2023-09-22T04:33:13.973Z,8.27
2023-09-22T04:35:45.581Z,8.82
2023-09-22T04:38:15.797Z,8.70
2023-09-22T04:40:45.819Z,12.23
2023-09-22T04:43:18.393Z,10.68
2023-09-22T04:45:47.625Z,10.98
2023-09-22T04:48:17.619Z,9.10
2023-09-22T04:50:56.024Z,12.23
2023-09-22T04:53:25.631Z,9.07
2023-09-22T04:56:04.731Z,8.52
2023-09-22T04:58:39.317Z,9.07
2023-09-22T05:01:09.883Z,9.68
2023-09-22T05:03:41.954Z,8.70
2023-09-22T05:06:11.186Z,14.57
2023-09-22T05:08:42.383Z,10.20
2023-09-22T05:11:12.416Z,9.13
2023-09-22T05:13:42.694Z,10.90
2023-09-22T05:16:19.965Z,10.05
2023-09-22T05:18:51.379Z,10.37
2023-09-22T05:21:20.722Z,9.10
2023-09-22T05:23:49.792Z,10.00
2023-09-22T05:26:27.520Z,8.00
2023-09-22T05:29:00.788Z,9.65
2023-09-22T05:31:30.007Z,7.00
2023-09-22T05:34:01.901Z,8.52
2023-09-22T05:36:31.341Z,9.85
2023-09-22T05:39:00.430Z,7.95
2023-09-22T05:41:33.710Z,12.63
2023-09-22T05:44:03.977Z,7.87
2023-09-22T05:46:36.392Z,10.32
2023-09-22T05:49:08.206Z,10.02
2023-09-22T05:51:40.073Z,9.23
2023-09-22T05:54:12.020Z,9.18
2023-09-22T05:56:41.521Z,8.47
2023-09-22T05:59:11.821Z,8.90
2023-09-22T06:01:40.732Z,8.40
2023-09-22T06:04:10.890Z,11.77
2023-09-22T06:06:39.835Z,7.38
2023-09-22T06:09:12.334Z,7.10
2023-09-22T06:11:42.288Z,11.13
2023-09-22T06:14:13.604Z,8.98
2023-09-22T06:16:42.531Z,7.70
2023-09-22T06:19:12.374Z,7.07
2023-09-22T06:21:41.965Z,7.20
2023-09-22T06:24:12.468Z,7.88
2023-09-22T06:26:41.677Z,9.32
2023-09-22T06:29:11.836Z,10.95
2023-09-22T06:31:40.661Z,8.23
2023-09-22T06:34:12.062Z,7.33
2023-09-22T06:36:40.962Z,6.68
2023-09-22T06:39:09.847Z,9.05
2023-09-22T06:41:38.755Z,7.85
2023-09-22T06:44:14.145Z,8.80
2023-09-22T06:46:43.374Z,6.67
2023-09-22T06:49:12.319Z,8.38
2023-09-22T06:51:41.116Z,8.85
2023-09-22T06:54:12.105Z,8.68
2023-09-22T06:56:50.007Z,6.15
2023-09-22T06:59:23.172Z,8.30
2023-09-22T07:01:52.129Z,7.30
2023-09-22T07:04:22.641Z,6.43
2023-09-22T07:06:54.627Z,8.50
2023-09-22T07:09:23.907Z,6.75
2023-09-22T07:11:53.200Z,7.80
2023-09-22T07:14:26.055Z,9.63
2023-09-22T07:16:55.423Z,8.65
2023-09-22T07:19:24.338Z,6.93
2023-09-22T07:21:53.180Z,8.38
2023-09-22T07:24:22.050Z,6.80
2023-09-22T07:26:51.520Z,12.20
2023-09-22T07:29:20.317Z,7.72
2023-09-22T07:31:51.083Z,7.60
2023-09-22T07:34:19.914Z,8.25
2023-09-22T07:36:53.677Z,7.33
2023-09-22T07:39:27.828Z,8.68
2023-09-22T07:41:59.521Z,8.05
2023-09-22T07:44:28.478Z,6.53
2023-09-22T07:47:02.272Z,6.70
2023-09-22T07:49:31.456Z,7.17
2023-09-22T07:52:00.637Z,7.13
2023-09-22T07:54:32.533Z,7.22
2023-09-22T07:57:03.145Z,6.90
2023-09-22T07:59:32.584Z,9.90
2023-09-22T08:02:06.609Z,8.40
2023-09-22T08:04:36.253Z,8.75
2023-09-22T08:07:07.081Z,8.05
2023-09-22T08:09:38.416Z,7.18
2023-09-22T08:12:11.859Z,9.25
2023-09-22T08:14:56.788Z,7.07
2023-09-22T08:17:32.505Z,7.25
2023-09-22T08:20:02.034Z,7.60
2023-09-22T08:22:32.777Z,8.52
2023-09-22T08:25:02.603Z,6.22
2023-09-22T08:27:37.188Z,8.60
2023-09-22T08:30:12.173Z,9.48
2023-09-22T08:32:45.919Z,6.47
2023-09-22T08:35:17.860Z,7.80
2023-09-22T08:37:47.204Z,9.95
2023-09-22T08:40:19.305Z,8.00
2023-09-22T08:42:54.748Z,10.55
2023-09-22T08:45:24.021Z,7.57
2023-09-22T08:47:54.621Z,8.18
2023-09-22T08:50:24.747Z,9.07
2023-09-22T08:52:54.884Z,6.93
2023-09-22T08:55:28.973Z,8.27
2023-09-22T08:57:57.939Z,7.47
2023-09-22T09:00:30.831Z,6.13
2023-09-22T09:03:11.098Z,7.78
2023-09-22T09:05:42.595Z,6.53
2023-09-22T09:08:17.052Z,8.82
2023-09-22T09:10:49.547Z,7.95
2023-09-22T09:13:25.145Z,7.20
2023-09-22T09:16:07.862Z,8.07
2023-09-22T09:18:38.606Z,8.70
2023-09-22T09:21:11.614Z,6.93
2023-09-22T09:23:54.427Z,7.10
2023-09-22T09:26:29.208Z,6.75
2023-09-22T09:29:00.083Z,6.90
2023-09-22T09:31:47.257Z,6.60
2023-09-22T09:34:18.412Z,7.13
2023-09-22T09:36:47.374Z,6.18
2023-09-22T09:39:16.531Z,7.28
2023-09-22T09:41:46.132Z,6.63
2023-09-22T09:44:17.725Z,7.60
2023-09-22T09:46:46.859Z,7.70
2023-09-22T09:49:17.960Z,10.63
2023-09-22T09:51:54.036Z,7.20
2023-09-22T09:54:28.390Z,6.35
2023-09-22T09:57:00.308Z,7.77
2023-09-22T09:59:29.286Z,6.30
2023-09-22T10:01:58.446Z,6.70
2023-09-22T10:04:30.682Z,10.20
2023-09-22T10:07:00.596Z,6.45
2023-09-22T10:09:31.995Z,6.07
2023-09-22T10:12:04.869Z,8.18
2023-09-22T10:14:48.853Z,7.70
2023-09-22T10:17:24.116Z,6.45
2023-09-22T10:19:58.393Z,5.97
2023-09-22T10:22:29.789Z,6.50
2023-09-22T10:25:35.033Z,6.32
2023-09-22T10:28:08.025Z,9.45
2023-09-22T10:31:05.404Z,7.35
2023-09-22T10:33:35.024Z,6.00
2023-09-22T10:36:08.215Z,6.70
2023-09-22T10:38:59.738Z,7.93
2023-09-22T10:41:29.904Z,7.65
2023-09-22T10:44:03.297Z,6.30
2023-09-22T10:46:32.787Z,6.38
2023-09-22T10:49:02.315Z,13.57
2023-09-22T10:51:47.765Z,7.68
2023-09-22T10:54:19.381Z,6.90
2023-09-22T10:56:49.067Z,6.75
2023-09-22T10:59:18.259Z,6.05
2023-09-22T11:01:48.209Z,6.70
2023-09-22T11:04:18.839Z,8.57
2023-09-22T11:06:49.398Z,7.93
2023-09-22T11:09:18.375Z,8.38
2023-09-22T11:11:48.443Z,8.90
2023-09-22T11:14:22.491Z,6.70
2023-09-22T11:16:51.771Z,7.28
2023-09-22T11:19:20.759Z,12.85
2023-09-22T11:21:52.478Z,11.13
2023-09-22T11:24:22.276Z,7.00
2023-09-22T11:26:51.237Z,7.23
2023-09-22T11:29:20.111Z,9.60
2023-09-22T11:31:51.918Z,6.80
2023-09-22T11:34:24.392Z,9.88
2023-09-22T11:36:56.455Z,8.77
2023-09-22T11:39:31.282Z,9.87
2023-09-22T11:42:03.080Z,7.00
2023-09-22T11:44:31.945Z,8.43
2023-09-22T11:47:01.096Z,9.90
2023-09-22T11:49:38.634Z,10.60
2023-09-22T11:52:09.154Z,11.80
2023-09-22T11:54:37.931Z,7.30
2023-09-22T11:57:07.920Z,11.73
2023-09-22T11:59:38.401Z,7.20
2023-09-22T12:02:08.107Z,7.63
2023-09-22T12:04:39.797Z,8.37
2023-09-22T12:07:11.333Z,8.98
2023-09-22T12:09:41.323Z,7.82
2023-09-22T12:12:11.318Z,7.68
2023-09-22T12:14:41.890Z,7.45
2023-09-22T12:17:11.282Z,7.60
2023-09-22T12:19:41.832Z,8.55
2023-09-22T12:22:12.065Z,8.00
2023-09-22T12:24:41.138Z,7.90
2023-09-22T12:27:10.033Z,7.55
2023-09-22T12:29:38.869Z,8.50
2023-09-22T12:32:09.001Z,10.93
2023-09-22T12:34:38.061Z,8.70
2023-09-22T12:37:07.315Z,7.50
2023-09-22T12:39:37.824Z,7.80
2023-09-22T12:42:07.252Z,10.33
2023-09-22T12:44:37.026Z,7.35
2023-09-22T12:47:09.531Z,9.93
2023-09-22T12:49:39.361Z,10.00
2023-09-22T12:52:09.081Z,9.75
2023-09-22T12:54:39.249Z,7.30
2023-09-22T12:57:08.584Z,7.00
2023-09-22T12:59:37.336Z,8.18
2023-09-22T13:02:08.739Z,6.80
2023-09-22T13:04:37.598Z,8.07
2023-09-22T13:07:06.532Z,7.17
2023-09-22T13:09:35.688Z,7.55
2023-09-22T13:12:06.104Z,7.57
2023-09-22T13:14:34.946Z,7.82
2023-09-22T13:17:03.895Z,8.13
2023-09-22T13:19:36.785Z,7.10
2023-09-22T13:22:08.424Z,7.38
2023-09-22T13:24:38.610Z,8.07
2023-09-22T13:27:10.108Z,8.27
2023-09-22T13:29:40.520Z,7.88
2023-09-22T13:32:10.881Z,10.00
2023-09-22T13:34:41.555Z,7.88
2023-09-22T13:37:11.246Z,10.02
2023-09-22T13:39:40.230Z,8.02
2023-09-22T13:42:12.561Z,7.00
2023-09-22T13:44:41.817Z,9.30
2023-09-22T13:47:10.641Z,7.10
2023-09-22T13:49:40.027Z,7.07
2023-09-22T13:52:09.229Z,8.40
2023-09-22T13:54:37.987Z,9.75
2023-09-22T13:57:06.890Z,8.70
2023-09-22T13:59:37.682Z,7.57
2023-09-22T14:02:08.486Z,6.25
2023-09-22T14:04:37.418Z,9.30
2023-09-22T14:07:06.251Z,6.57
2023-09-22T14:09:35.654Z,7.77
2023-09-22T14:12:04.941Z,8.63
2023-09-22T14:14:34.300Z,8.07
2023-09-22T14:17:04.733Z,9.38
2023-09-22T14:19:34.552Z,9.75
2023-09-22T14:22:04.516Z,8.20
2023-09-22T14:24:33.235Z,8.20
2023-09-22T14:27:02.005Z,11.65
2023-09-22T14:29:30.880Z,8.18
2023-09-22T14:31:59.800Z,9.38
2023-09-22T14:34:30.245Z,9.20
2023-09-22T14:36:59.129Z,12.27
2023-09-22T14:39:28.471Z,8.30
2023-09-22T14:41:57.246Z,8.20
2023-09-22T14:44:26.136Z,10.27
2023-09-22T14:46:55.777Z,9.70
2023-09-22T14:49:24.658Z,8.43
2023-09-22T14:51:55.090Z,8.43
2023-09-22T14:54:23.859Z,7.05
2023-09-22T14:56:52.638Z,8.32
2023-09-22T14:59:21.716Z,8.20
2023-09-22T15:01:50.646Z,9.23
2023-09-22T15:04:19.637Z,8.10
2023-09-22T15:06:48.555Z,10.85
2023-09-22T15:09:19.269Z,9.52
2023-09-22T15:11:48.129Z,7.73
2023-09-22T15:14:18.216Z,10.57
2023-09-22T15:16:47.007Z,7.72
2023-09-22T15:19:16.105Z,9.05
2023-09-22T15:21:44.924Z,9.65
2023-09-22T15:24:13.765Z,12.17
2023-09-22T15:26:43.998Z,8.98
2023-09-22T15:29:12.823Z,9.38
2023-09-22T15:31:42.264Z,8.68
2023-09-22T15:34:15.346Z,12.90
2023-09-22T15:36:44.454Z,11.50
2023-09-22T15:39:14.371Z,9.18
2023-09-22T15:41:45.075Z,8.48
2023-09-22T15:44:14.530Z,9.80
2023-09-22T15:46:43.837Z,10.48
2023-09-22T15:49:13.208Z,10.63
2023-09-22T15:51:41.943Z,8.88
2023-09-22T15:54:12.715Z,9.75
2023-09-22T15:56:43.810Z,9.90
2023-09-22T15:59:13.950Z,12.13
2023-09-22T16:01:54.858Z,12.37
2023-09-22T16:04:23.735Z,12.38
2023-09-22T16:06:54.786Z,11.23
2023-09-22T16:09:26.908Z,12.05
2023-09-22T16:11:57.344Z,10.07
2023-09-22T16:14:27.605Z,10.30
2023-09-22T16:16:57.700Z,10.25
2023-09-22T16:19:26.774Z,10.32
2023-09-22T16:21:55.898Z,14.80
2023-09-22T16:24:24.733Z,10.05
2023-09-22T16:26:53.555Z,8.50
2023-09-22T16:29:27.669Z,13.40
2023-09-22T16:31:58.854Z,11.43
2023-09-22T16:34:30.503Z,11.57
2023-09-22T16:36:59.646Z,11.20
2023-09-22T16:39:28.518Z,11.80
2023-09-22T16:41:57.515Z,10.55
2023-09-22T16:44:26.286Z,12.23
2023-09-22T16:46:55.138Z,11.00
2023-09-22T16:49:25.585Z,10.85
2023-09-22T16:51:54.662Z,12.33
2023-09-22T16:54:23.347Z,10.68
2023-09-22T16:56:52.678Z,9.45
2023-09-22T16:59:22.444Z,13.00
2023-09-22T17:01:51.482Z,10.73
2023-09-22T17:04:22.564Z,12.60
2023-09-22T17:06:52.706Z,11.38
2023-09-22T17:09:21.565Z,10.23
2023-09-22T17:11:50.423Z,11.80
2023-09-22T17:14:53.291Z,12.98
2023-09-22T17:17:23.844Z,10.87
2023-09-22T17:19:57.084Z,11.48
2023-09-22T17:22:29.016Z,11.90
2023-09-22T17:24:57.974Z,11.25
2023-09-22T17:27:27.160Z,13.85
2023-09-22T17:29:56.145Z,11.87
2023-09-22T17:32:32.451Z,10.52
2023-09-22T17:35:03.233Z,13.48
2023-09-22T17:37:38.434Z,10.88
2023-09-22T17:40:13.482Z,13.20
2023-09-22T17:42:42.428Z,11.27
2023-09-22T17:45:22.430Z,13.15
2023-09-22T17:47:51.851Z,12.90
2023-09-22T17:50:21.095Z,12.10
2023-09-22T17:52:52.904Z,11.25
2023-09-22T17:55:22.917Z,11.90
2023-09-22T17:57:51.712Z,10.82
2023-09-22T18:00:25.198Z,11.88
2023-09-22T18:02:58.050Z,11.50
2023-09-22T18:05:28.021Z,13.88
2023-09-22T18:07:58.640Z,10.20
2023-09-22T18:10:28.850Z,10.27
2023-09-22T18:13:10.194Z,10.35
2023-09-22T18:15:39.356Z,10.13
2023-09-22T18:18:12.337Z,11.20
2023-09-22T18:20:41.650Z,9.90
2023-09-22T18:23:12.852Z,10.27
2023-09-22T18:25:42.662Z,10.73
2023-09-22T18:28:11.654Z,12.13
2023-09-22T18:30:41.596Z,10.38
2023-09-22T18:33:11.006Z,12.40
2023-09-22T18:35:40.739Z,13.90
2023-09-22T18:38:09.796Z,12.10
2023-09-22T18:40:39.996Z,11.60
2023-09-22T18:43:09.755Z,11.85
2023-09-22T18:45:39.883Z,10.87
2023-09-22T18:48:09.268Z,12.45
2023-09-22T18:50:38.687Z,9.93
2023-09-22T18:53:07.884Z,12.15
2023-09-22T18:55:38.044Z,12.68
2023-09-22T18:58:13.976Z,15.03
2023-09-22T19:00:50.793Z,12.13
2023-09-22T19:03:24.423Z,14.27
2023-09-22T19:05:55.130Z,10.00
2023-09-22T19:08:27.473Z,12.65
2023-09-22T19:11:07.146Z,11.80
2023-09-22T19:14:03.018Z,12.52
2023-09-22T19:16:35.738Z,10.88
2023-09-22T19:19:05.457Z,10.15
2023-09-22T19:21:41.019Z,12.40
2023-09-22T19:24:16.264Z,12.00
2023-09-22T19:29:38.392Z,12.70
2023-09-22T19:32:07.241Z,11.55
2023-09-22T19:34:42.723Z,12.38
2023-09-22T19:37:13.392Z,11.87
2023-09-22T19:39:42.442Z,11.95
2023-09-22T19:42:11.902Z,13.75
2023-09-22T19:44:42.109Z,12.52
2023-09-22T19:47:12.721Z,13.35
2023-09-22T19:49:41.463Z,11.13
2023-09-22T19:52:11.131Z,14.07
2023-09-22T19:54:40.893Z,10.65
2023-09-22T19:57:13.140Z,10.25
2023-09-22T19:59:48.332Z,11.80
2023-09-22T20:02:18.393Z,10.03
2023-09-22T20:04:47.753Z,11.07
2023-09-22T20:07:16.772Z,11.43
2023-09-22T20:09:46.216Z,10.80
2023-09-22T20:12:15.483Z,12.18
2023-09-22T20:14:47.436Z,12.63
2023-09-22T20:17:16.333Z,13.52
2023-09-22T20:19:46.573Z,12.05
2023-09-22T20:22:15.625Z,12.65
2023-09-22T20:24:44.381Z,12.63
2023-09-22T20:27:13.277Z,10.47
2023-09-22T20:29:42.140Z,12.32
2023-09-22T20:32:13.329Z,11.15
2023-09-22T20:34:42.344Z,10.70
2023-09-22T20:37:11.776Z,13.30
2023-09-22T20:39:40.695Z,11.20
2023-09-22T20:42:09.410Z,13.73
2023-09-22T20:44:38.205Z,11.27
2023-09-22T20:47:11.290Z,11.60
2023-09-22T20:49:43.428Z,15.02
2023-09-22T20:52:12.339Z,14.67
2023-09-22T20:54:41.131Z,12.73
2023-09-22T20:57:10.021Z,12.32
2023-09-22T20:59:40.203Z,12.80
2023-09-22T21:02:11.824Z,11.60
2023-09-22T21:04:42.169Z,12.47
2023-09-22T21:07:11.641Z,10.68
2023-09-22T21:09:40.537Z,10.73
2023-09-22T21:12:09.653Z,13.57
2023-09-22T21:14:38.440Z,13.63
2023-09-22T21:17:07.356Z,14.93
2023-09-22T21:19:36.269Z,11.20
2023-09-22T21:22:06.365Z,12.70
2023-09-22T21:24:35.163Z,10.82
2023-09-22T21:27:04.990Z,10.60
2023-09-22T21:29:34.031Z,11.53
2023-09-22T21:32:02.796Z,10.77
2023-09-22T21:34:31.666Z,17.98
2023-09-22T21:37:00.506Z,12.80
2023-09-22T21:39:31.023Z,9.43
2023-09-22T21:41:59.756Z,13.50
2023-09-22T21:44:28.525Z,13.55
2023-09-22T21:46:57.346Z,11.77
2023-09-22T21:49:26.060Z,10.13
2023-09-22T21:51:54.872Z,10.77
2023-09-22T21:54:23.843Z,10.30
2023-09-22T21:56:53.934Z,10.95
2023-09-22T21:59:23.001Z,10.65
2023-09-22T22:01:52.048Z,12.52
2023-09-22T22:04:20.884Z,9.75
2023-09-22T22:06:52.217Z,9.33
2023-09-22T22:09:21.326Z,10.50
2023-09-22T22:11:50.691Z,10.02
2023-09-22T22:14:20.949Z,9.13
2023-09-22T22:16:50.588Z,10.88
2023-09-22T22:19:20.752Z,11.13
2023-09-22T22:21:51.344Z,9.10
2023-09-22T22:24:22.895Z,12.30
2023-09-22T22:26:53.272Z,11.55
2023-09-22T22:29:23.506Z,10.18
2023-09-22T22:31:52.453Z,11.93
2023-09-22T22:34:22.383Z,10.85
2023-09-22T22:36:52.143Z,11.10
2023-09-22T22:39:21.107Z,10.77
2023-09-22T22:41:49.874Z,11.07
2023-09-22T22:44:19.204Z,12.07
2023-09-22T22:46:50.329Z,9.38
2023-09-22T22:49:19.145Z,9.85
2023-09-22T22:51:48.377Z,12.60
2023-09-22T22:54:17.184Z,10.65
2023-09-22T22:56:45.948Z,9.70
2023-09-22T22:59:15.335Z,11.48
2023-09-22T23:01:45.250Z,9.55
2023-09-22T23:04:16.165Z,10.80
2023-09-22T23:06:45.026Z,12.68
2023-09-22T23:09:15.628Z,11.67
2023-09-22T23:11:45.347Z,10.38
2023-09-22T23:14:18.616Z,11.48
2023-09-22T23:16:49.145Z,11.88
2023-09-22T23:19:20.176Z,10.05
2023-09-22T23:21:51.882Z,10.60
2023-09-22T23:24:20.654Z,9.80
2023-09-22T23:26:49.467Z,13.38
2023-09-22T23:29:18.242Z,10.00
2023-09-22T23:31:47.297Z,8.57
2023-09-22T23:34:17.282Z,8.87
2023-09-22T23:36:48.748Z,11.45
2023-09-22T23:39:17.760Z,11.88
2023-09-22T23:41:46.532Z,9.57
2023-09-22T23:44:15.298Z,10.02
2023-09-22T23:46:45.371Z,11.32
2023-09-22T23:49:16.020Z,11.02
2023-09-22T23:51:46.969Z,12.50
2023-09-22T23:54:16.999Z,10.67
2023-09-22T23:56:46.814Z,10.50
2023-09-22T23:59:15.587Z,9.48
